Maysfield, Texas
Current Conditions -  °F | °C
As of 10:15 AM on Wednesday 22 Oct 2014 (Local Time) from KT35 Reporting Station
Clear Clear  
Wind Chill: 71°   Ceiling: Unl
Heat Index: 71°   Visibility: 10mi
Dew Point: 63°   Wind: 5mph
Humidity: 75%   Direction: 110°ESE
Pressure: 30.15"   Gusts: NA
Location:  30.9°N, 96.85°W
Report Text: KT35 221515Z AUTO 11004KT 10SM CLR 22/17 A3015 RMK AO2 T02180172
Loading
Personal Weather Stations






























Interactive Weather Map
Tropical Storm Tracking
New forecast layout! Learn more

10-Day Weather Forecast

Advertisements
Track Severe Weather on mobile